Time;durP1;ratioP1;P1;durP2;ratioP2;P2;SDS_P1;SDS_P2;PMS_P1;PMS_P2;Temp;Humidity;BMP_temperature;BMP_pressure;BME280_temperature;BME280_humidity;BME280_pressure;Samples;Min_cycle;Max_cycle;Signal;HPM_P1;HPM_P2
2022/06/29 00:00:06;;;;;;;6.67;6.07;;;20.20;99.90;;;;;;5043635;28;20478;-70
2022/06/29 00:02:32;;;;;;;7.13;6.63;;;20.20;99.90;;;;;;5043659;28;20449;-70
2022/06/29 00:04:58;;;;;;;7.20;6.60;;;20.20;99.90;;;;;;5043464;28;20492;-70
2022/06/29 00:07:24;;;;;;;6.57;6.10;;;20.10;99.90;;;;;;5043433;28;20421;-70
2022/06/29 00:09:49;;;;;;;6.40;5.87;;;20.00;99.90;;;;;;5043348;28;20202;-70
2022/06/29 00:12:15;;;;;;;6.60;6.07;;;19.90;99.90;;;;;;5043610;28;20221;-69
2022/06/29 00:14:43;;;;;;;7.07;6.50;;;20.00;99.90;;;;;;5043439;28;20733;-69
2022/06/29 00:17:13;;;;;;;7.57;6.90;;;19.80;99.90;;;;;;5043307;28;20244;-70
2022/06/29 00:19:39;;;;;;;6.63;6.13;;;19.80;99.90;;;;;;5042803;28;20429;-70
2022/06/29 00:22:06;;;;;;;7.03;6.33;;;19.80;99.90;;;;;;5042897;28;20459;-69
2022/06/29 00:24:32;;;;;;;7.00;6.40;;;19.80;99.90;;;;;;5043406;28;20425;-70
2022/06/29 00:26:59;;;;;;;6.73;6.13;;;19.80;99.90;;;;;;5043519;28;20412;-70
2022/06/29 00:29:25;;;;;;;6.77;6.17;;;19.80;99.90;;;;;;5043436;28;20948;-69
2022/06/29 00:31:50;;;;;;;7.33;6.80;;;19.80;99.90;;;;;;5043544;28;20500;-69
2022/06/29 00:34:16;;;;;;;6.30;5.87;;;19.90;99.90;;;;;;5043311;28;20408;-70
2022/06/29 00:36:42;;;;;;;6.37;5.90;;;19.90;99.90;;;;;;5042661;28;20182;-70
2022/06/29 00:39:08;;;;;;;7.03;6.37;;;19.90;99.90;;;;;;5042897;28;20194;-70
2022/06/29 00:41:38;;;;;;;7.27;6.57;;;19.70;99.90;;;;;;5045980;28;20198;-69
2022/06/29 00:44:04;;;;;;;6.00;5.53;;;19.70;99.90;;;;;;5047176;28;20427;-70
2022/06/29 00:46:29;;;;;;;6.73;5.87;;;19.60;99.90;;;;;;5046872;28;20455;-70
2022/06/29 00:48:55;;;;;;;7.20;6.50;;;19.60;99.90;;;;;;5046748;28;20940;-70
2022/06/29 00:51:20;;;;;;;6.87;6.17;;;19.70;99.90;;;;;;5046662;28;20178;-69
2022/06/29 00:53:50;;;;;;;6.60;6.00;;;19.80;99.90;;;;;;5046668;28;20214;-70
2022/06/29 00:56:18;;;;;;;6.60;6.07;;;19.80;99.90;;;;;;5046756;28;20300;-70
2022/06/29 00:58:46;;;;;;;6.57;6.03;;;19.80;99.90;;;;;;5046401;28;20444;-70
2022/06/29 01:01:14;;;;;;;6.20;5.67;;;19.60;99.90;;;;;;5046549;28;20531;-69
2022/06/29 01:03:39;;;;;;;6.30;5.80;;;19.60;99.90;;;;;;5047013;28;20770;-71
2022/06/29 01:06:06;;;;;;;6.50;5.90;;;19.50;99.90;;;;;;5046276;28;20409;-70
2022/06/29 01:08:32;;;;;;;6.50;5.90;;;19.30;99.90;;;;;;5046095;28;20198;-70
2022/06/29 01:10:58;;;;;;;6.43;6.03;;;19.30;99.90;;;;;;5046627;28;20487;-70
2022/06/29 01:13:23;;;;;;;6.43;5.93;;;19.40;99.90;;;;;;5046564;28;20405;-69
2022/06/29 01:15:49;;;;;;;6.60;6.10;;;19.50;99.90;;;;;;5046769;28;20246;-70
2022/06/29 01:18:14;;;;;;;6.60;6.00;;;19.60;99.90;;;;;;5046184;28;20189;-70
2022/06/29 01:20:40;;;;;;;6.63;5.93;;;19.70;99.90;;;;;;5046380;28;20253;-71
2022/06/29 01:23:06;;;;;;;5.93;5.53;;;19.80;99.90;;;;;;5046214;28;20201;-69
2022/06/29 01:25:31;;;;;;;8.30;6.40;;;19.80;99.90;;;;;;5046439;28;20576;-70
2022/06/29 01:27:58;;;;;;;6.90;6.30;;;19.70;99.90;;;;;;5046034;28;20186;-70
2022/06/29 01:30:24;;;;;;;6.60;6.10;;;19.70;99.90;;;;;;5046228;28;20654;-71
2022/06/29 01:32:50;;;;;;;6.40;6.00;;;19.70;99.90;;;;;;5046129;28;20429;-71
2022/06/29 01:35:16;;;;;;;7.10;6.40;;;19.60;99.90;;;;;;5045841;28;20732;-71
2022/06/29 01:37:42;;;;;;;6.40;5.90;;;19.60;99.90;;;;;;5046394;28;20764;-70
2022/06/29 01:40:09;;;;;;;5.80;5.30;;;19.70;99.90;;;;;;5045685;28;20931;-71
2022/06/29 01:42:35;;;;;;;7.00;6.37;;;19.60;99.90;;;;;;5028122;28;20578;-71
2022/06/29 01:45:01;;;;;;;6.63;6.13;;;19.70;99.90;;;;;;5045960;28;20500;-71
2022/06/29 01:47:27;;;;;;;7.30;6.70;;;19.50;99.90;;;;;;5027963;28;21166;-69
2022/06/29 01:49:52;;;;;;;6.80;6.20;;;19.40;99.90;;;;;;5045492;28;20194;-70
2022/06/29 01:52:18;;;;;;;7.00;6.40;;;19.40;99.90;;;;;;5045293;28;20608;-71
2022/06/29 01:54:44;;;;;;;6.03;5.63;;;19.50;99.90;;;;;;5027666;28;20197;-71
2022/06/29 01:57:09;;;;;;;6.83;6.33;;;19.60;99.90;;;;;;5045534;28;20225;-69
2022/06/29 01:59:35;;;;;;;7.27;6.67;;;19.50;99.90;;;;;;5044208;28;20317;-70
2022/06/29 02:02:01;;;;;;;7.23;6.73;;;19.50;99.90;;;;;;5045364;28;20245;-69
2022/06/29 02:04:26;;;;;;;6.87;6.37;;;19.50;99.90;;;;;;5045606;28;20175;-71
2022/06/29 02:06:52;;;;;;;6.93;6.33;;;19.60;99.90;;;;;;5045304;28;20258;-70
2022/06/29 02:09:17;;;;;;;7.07;6.47;;;19.60;99.90;;;;;;5045037;28;20201;-70
2022/06/29 02:11:43;;;;;;;6.50;5.90;;;19.60;99.90;;;;;;5045137;28;20530;-70
2022/06/29 02:14:10;;;;;;;7.23;6.37;;;19.60;99.90;;;;;;5045261;28;20174;-71
2022/06/29 02:16:35;;;;;;;6.53;6.03;;;19.60;99.90;;;;;;5043849;28;20202;-68
2022/06/29 02:19:01;;;;;;;7.60;7.00;;;19.60;99.90;;;;;;5045029;28;20484;-69
2022/06/29 02:21:27;;;;;;;6.53;6.03;;;19.60;99.90;;;;;;5045265;28;20198;-69
2022/06/29 02:23:52;;;;;;;7.20;6.67;;;19.60;99.90;;;;;;5044733;28;20189;-69
2022/06/29 02:26:18;;;;;;;8.37;7.57;;;19.50;99.90;;;;;;5044807;28;20261;-71
2022/06/29 02:28:44;;;;;;;7.57;6.90;;;19.50;99.90;;;;;;5044711;28;20222;-70
2022/06/29 02:34:54;;;;;;;7.27;6.70;;;19.40;99.90;;;;;;5045096;28;20666;-70
2022/06/29 02:36:49;;;;;;;7.33;6.80;;;19.40;99.90;;;;;;5032003;28;20791;-70
2022/06/29 02:39:34;;;;;;;8.37;7.67;;;19.30;99.90;;;;;;5044867;28;20437;-70
2022/06/29 02:41:59;;;;;;;7.13;6.50;;;19.30;99.90;;;;;;5044639;28;20210;-71
2022/06/29 02:44:25;;;;;;;7.87;7.17;;;19.30;99.90;;;;;;5044176;28;20417;-70
2022/06/29 02:46:51;;;;;;;7.60;6.97;;;19.20;99.90;;;;;;5044083;28;20639;-71
2022/06/29 02:49:16;;;;;;;8.90;8.10;;;19.20;99.90;;;;;;5026862;28;20195;-71
2022/06/29 02:51:42;;;;;;;8.03;7.43;;;19.20;99.90;;;;;;5044628;28;20182;-69
2022/06/29 02:54:07;;;;;;;8.00;7.40;;;19.20;99.90;;;;;;5044803;28;20171;-70
2022/06/29 02:56:33;;;;;;;9.00;8.20;;;19.10;99.90;;;;;;5044391;28;20197;-69
2022/06/29 02:58:59;;;;;;;8.47;7.73;;;19.10;99.90;;;;;;5044138;28;20808;-70
2022/06/29 03:01:24;;;;;;;8.97;8.07;;;19.10;99.90;;;;;;5043987;28;20283;-70
2022/06/29 03:03:50;;;;;;;8.83;8.10;;;19.10;99.90;;;;;;5025941;28;20209;-70
2022/06/29 03:06:15;;;;;;;8.87;8.20;;;19.10;99.90;;;;;;5044539;28;20189;-70
2022/06/29 03:08:41;;;;;;;7.47;6.80;;;19.10;99.90;;;;;;5044255;28;20809;-70
2022/06/29 03:11:07;;;;;;;8.20;7.40;;;19.10;99.90;;;;;;5044104;28;20237;-71
2022/06/29 03:13:32;;;;;;;7.43;6.90;;;19.10;99.90;;;;;;5043861;28;20198;-71
2022/06/29 03:15:58;;;;;;;8.40;7.60;;;19.10;99.90;;;;;;5043960;28;20193;-70
2022/06/29 03:18:23;;;;;;;8.90;8.20;;;18.90;99.90;;;;;;5044005;28;20263;-70
2022/06/29 03:20:49;;;;;;;7.70;6.90;;;18.80;99.90;;;;;;5044056;28;20523;-70
2022/06/29 03:23:15;;;;;;;8.37;7.60;;;18.90;99.90;;;;;;5043999;28;20710;-69
2022/06/29 03:25:41;;;;;;;7.67;7.07;;;18.90;99.90;;;;;;5044161;28;20294;-71
2022/06/29 03:28:06;;;;;;;8.20;7.50;;;18.90;99.90;;;;;;5043822;28;20196;-70
2022/06/29 03:30:32;;;;;;;8.60;7.90;;;19.00;99.90;;;;;;5043477;28;20651;-70
2022/06/29 03:32:58;;;;;;;8.40;7.70;;;18.90;99.90;;;;;;5043787;28;20902;-71
2022/06/29 03:35:24;;;;;;;10.70;7.63;;;18.90;99.90;;;;;;5044036;28;20824;-71
2022/06/29 03:37:50;;;;;;;8.17;7.37;;;19.00;99.90;;;;;;5043642;28;20236;-69
2022/06/29 03:40:16;;;;;;;7.80;7.20;;;19.10;99.90;;;;;;5044125;28;20232;-71
2022/06/29 03:42:42;;;;;;;7.70;7.00;;;19.10;99.90;;;;;;5043774;28;20544;-71
2022/06/29 03:45:08;;;;;;;7.50;7.00;;;19.20;99.90;;;;;;5043441;28;20507;-72
2022/06/29 03:47:34;;;;;;;7.93;7.27;;;19.10;99.90;;;;;;5043828;28;20214;-70
2022/06/29 03:50:00;;;;;;;8.07;7.23;;;19.10;99.90;;;;;;5043828;28;20468;-70
2022/06/29 03:52:25;;;;;;;9.30;8.50;;;19.20;99.90;;;;;;5044076;28;20178;-70
2022/06/29 03:54:51;;;;;;;8.70;7.90;;;19.10;99.90;;;;;;5043466;28;20525;-71
2022/06/29 03:57:16;;;;;;;6.90;6.40;;;19.10;99.90;;;;;;5043752;28;20178;-70
2022/06/29 03:59:42;;;;;;;8.50;7.90;;;19.10;99.90;;;;;;5043169;28;20215;-70
2022/06/29 04:02:08;;;;;;;7.63;6.97;;;19.10;99.90;;;;;;5043404;28;20213;-69
2022/06/29 04:04:34;;;;;;;8.27;7.43;;;19.10;99.90;;;;;;5043621;28;20171;-72
2022/06/29 04:06:59;;;;;;;7.70;7.20;;;19.10;99.90;;;;;;5025532;28;20186;-69
2022/06/29 04:09:25;;;;;;;9.30;8.50;;;19.10;99.90;;;;;;5043532;28;20202;-70
2022/06/29 04:11:54;;;;;;;7.63;7.00;;;19.10;99.90;;;;;;5043462;28;20178;-70
2022/06/29 04:14:21;;;;;;;8.50;7.80;;;19.00;99.90;;;;;;5043249;28;20189;-70
2022/06/29 04:16:48;;;;;;;7.80;7.20;;;19.00;99.90;;;;;;5046797;28;20444;-70
2022/06/29 04:19:13;;;;;;;8.00;7.40;;;19.10;99.90;;;;;;5047290;28;20961;-71
2022/06/29 04:21:39;;;;;;;8.10;7.50;;;19.10;99.90;;;;;;5029474;28;20463;-71
2022/06/29 04:24:05;;;;;;;7.80;7.20;;;19.10;99.90;;;;;;5047331;28;20265;-70
2022/06/29 04:26:31;;;;;;;8.30;7.60;;;19.10;99.90;;;;;;5047503;28;21002;-70
2022/06/29 04:28:56;;;;;;;7.20;6.60;;;19.20;99.90;;;;;;5047103;28;20476;-70
2022/06/29 04:31:22;;;;;;;7.70;7.07;;;19.30;99.90;;;;;;5047132;28;20631;-70
2022/06/29 04:33:48;;;;;;;8.67;7.77;;;19.30;99.90;;;;;;5047192;28;20179;-71
2022/06/29 04:36:13;;;;;;;8.00;7.40;;;19.30;99.90;;;;;;5047108;28;20175;-71
2022/06/29 04:38:39;;;;;;;7.70;7.20;;;19.30;99.90;;;;;;5047198;28;20218;-71
2022/06/29 04:41:05;;;;;;;8.03;7.33;;;19.40;99.90;;;;;;5046886;28;20178;-70
2022/06/29 04:43:30;;;;;;;8.77;8.10;;;19.40;99.90;;;;;;5046884;28;20202;-70
2022/06/29 04:48:42;;;;;;;8.30;7.70;;;19.50;99.90;;;;;;5047124;28;20255;-70
2022/06/29 04:51:07;;;;;;;8.70;8.00;;;19.60;99.90;;;;;;5046707;28;20423;-70
2022/06/29 04:53:33;;;;;;;7.77;7.00;;;19.60;99.90;;;;;;5046938;28;20421;-70
2022/06/29 04:55:59;;;;;;;7.33;6.83;;;19.70;99.90;;;;;;5028647;28;20187;-70
2022/06/29 04:58:24;;;;;;;7.57;6.87;;;19.70;99.90;;;;;;5045989;28;20272;-68
2022/06/29 05:00:50;;;;;;;9.70;8.63;;;19.80;99.90;;;;;;5046696;28;20187;-69
2022/06/29 05:03:16;;;;;;;8.37;7.67;;;19.80;99.90;;;;;;5046385;28;20206;-71
2022/06/29 05:05:42;;;;;;;8.27;7.40;;;19.90;99.90;;;;;;5046511;28;20183;-70
2022/06/29 05:08:08;;;;;;;8.40;7.70;;;20.00;99.90;;;;;;5028399;28;20973;-71
2022/06/29 05:10:34;;;;;;;7.50;6.90;;;19.90;99.90;;;;;;5045126;28;20604;-70
2022/06/29 05:13:00;;;;;;;9.00;7.00;;;19.90;99.90;;;;;;5046345;28;20420;-71
2022/06/29 05:15:25;;;;;;;7.83;7.27;;;19.90;99.90;;;;;;5046082;28;20210;-70
2022/06/29 05:17:51;;;;;;;8.83;8.03;;;19.90;99.90;;;;;;5046268;28;20449;-71
2022/06/29 05:20:20;;;;;;;7.77;7.13;;;19.90;99.90;;;;;;5046088;28;20344;-70
2022/06/29 05:22:46;;;;;;;8.13;7.43;;;20.00;99.90;;;;;;5046324;28;20202;-70
2022/06/29 05:25:11;;;;;;;7.13;6.53;;;20.00;99.90;;;;;;5045965;28;20425;-71
2022/06/29 05:27:37;;;;;;;9.07;8.27;;;20.00;99.90;;;;;;5045546;28;20179;-70
2022/06/29 05:30:03;;;;;;;7.87;6.90;;;20.00;99.90;;;;;;5046112;28;20203;-70
2022/06/29 05:32:29;;;;;;;8.60;7.90;;;20.10;99.90;;;;;;5045772;28;20906;-70
2022/06/29 05:34:54;;;;;;;8.50;7.23;;;20.00;99.90;;;;;;5046025;28;20413;-71
2022/06/29 05:37:20;;;;;;;6.77;6.27;;;20.10;99.90;;;;;;5045471;28;20905;-70
2022/06/29 05:39:46;;;;;;;7.50;6.80;;;20.00;99.90;;;;;;5043696;28;20232;-69
2022/06/29 05:42:14;;;;;;;8.93;8.00;;;20.00;99.90;;;;;;5045752;28;20210;-70
2022/06/29 05:44:41;;;;;;;7.87;7.27;;;19.90;99.90;;;;;;5045586;28;20639;-71
2022/06/29 05:47:08;;;;;;;8.27;7.67;;;20.00;99.90;;;;;;5045783;28;20506;-70
2022/06/29 05:49:35;;;;;;;8.70;7.47;;;20.00;99.90;;;;;;5045576;28;20424;-70
2022/06/29 05:52:01;;;;;;;7.73;7.10;;;20.00;99.90;;;;;;5045748;28;20787;-71
2022/06/29 05:54:26;;;;;;;7.73;7.00;;;20.10;99.90;;;;;;5046116;28;20414;-71
2022/06/29 05:56:52;;;;;;;7.70;6.80;;;20.20;99.90;;;;;;5045709;28;20502;-71
2022/06/29 05:59:17;;;;;;;7.93;7.33;;;20.40;99.90;;;;;;5046063;28;20585;-71
2022/06/29 06:01:43;;;;;;;8.57;7.80;;;20.50;99.90;;;;;;5045455;28;20202;-71
2022/06/29 06:04:08;;;;;;;7.27;6.67;;;20.70;99.90;;;;;;5045699;28;20643;-70
2022/06/29 06:06:34;;;;;;;6.83;6.13;;;20.90;99.90;;;;;;5045496;28;20187;-71
2022/06/29 06:09:00;;;;;;;11.93;7.30;;;21.20;99.90;;;;;;5045875;28;20678;-70
2022/06/29 06:11:26;;;;;;;8.13;7.30;;;21.40;99.90;;;;;;5045544;28;20186;-70
2022/06/29 06:13:51;;;;;;;6.60;6.10;;;21.60;99.90;;;;;;5045230;28;20186;-71
2022/06/29 06:16:17;;;;;;;7.40;6.80;;;21.70;99.90;;;;;;5044981;28;20425;-70
2022/06/29 06:18:43;;;;;;;7.20;6.67;;;21.40;99.90;;;;;;5045768;28;20221;-71
2022/06/29 06:21:08;;;;;;;7.93;7.33;;;21.40;99.90;;;;;;5045211;28;20655;-71
2022/06/29 06:23:34;;;;;;;7.73;7.13;;;21.70;99.90;;;;;;5045158;28;20205;-71
2022/06/29 06:26:02;;;;;;;8.90;8.10;;;21.90;99.90;;;;;;5045220;28;20179;-70
2022/06/29 06:28:28;;;;;;;9.13;8.33;;;21.90;99.90;;;;;;5045785;28;20199;-70
2022/06/29 06:30:54;;;;;;;7.40;6.83;;;22.10;99.90;;;;;;5045103;28;20985;-70
2022/06/29 06:33:20;;;;;;;9.40;8.60;;;22.30;99.90;;;;;;5027057;28;20186;-70
2022/06/29 06:35:46;;;;;;;8.63;7.73;;;22.00;99.90;;;;;;5045079;28;20643;-71
2022/06/29 06:38:11;;;;;;;9.47;8.53;;;21.90;99.90;;;;;;5044185;28;20964;-72
2022/06/29 06:43:21;;;;;;;9.50;7.50;;;22.50;99.90;;;;;;5045243;28;20673;-70
2022/06/29 06:45:47;;;;;;;9.43;8.73;;;22.40;99.90;;;;;;5044169;28;20417;-68
2022/06/29 06:48:12;;;;;;;8.70;7.97;;;22.40;99.90;;;;;;5044410;28;20667;-69
2022/06/29 06:50:38;;;;;;;8.77;8.07;;;22.50;99.90;;;;;;5044537;28;20183;-69
2022/06/29 06:53:04;;;;;;;8.57;7.67;;;22.70;99.90;;;;;;5044858;28;20178;-70
2022/06/29 06:55:29;;;;;;;8.47;7.50;;;23.00;99.90;;;;;;5044764;28;20182;-69
2022/06/29 06:57:55;;;;;;;8.60;7.80;;;23.20;99.90;;;;;;5026707;28;20183;-68
2022/06/29 07:00:21;;;;;;;8.10;7.40;;;23.10;99.90;;;;;;5068588;22;20215;-70
2022/06/29 07:02:46;;;;;;;8.40;7.13;;;23.10;99.90;;;;;;5023596;28;20719;-69
2022/06/29 07:05:12;;;;;;;7.70;6.90;;;23.30;99.90;;;;;;5023983;28;20182;-70
2022/06/29 07:07:39;;;;;;;7.73;7.13;;;23.40;99.90;;;;;;5024364;28;20560;-72
2022/06/29 07:10:05;;;;;;;6.57;5.93;;;23.40;99.90;;;;;;5024266;28;20267;-71
2022/06/29 07:12:31;;;;;;;7.47;6.87;;;23.60;99.90;;;;;;5025219;28;20432;-69
2022/06/29 07:14:56;;;;;;;8.80;7.90;;;23.70;99.90;;;;;;5025318;28;20418;-67
2022/06/29 07:17:22;;;;;;;10.80;7.27;;;23.20;99.90;;;;;;5024439;28;20183;-69
2022/06/29 07:19:48;;;;;;;7.13;6.47;;;23.10;99.90;;;;;;5024618;28;20186;-70
2022/06/29 07:22:13;;;;;;;8.57;7.67;;;22.90;99.90;;;;;;5023816;28;20195;-70
2022/06/29 07:24:39;;;;;;;7.07;6.47;;;23.00;99.90;;;;;;5024621;28;20255;-71
2022/06/29 07:27:04;;;;;;;7.27;6.57;;;22.80;99.90;;;;;;5023914;28;20241;-71
2022/06/29 07:29:30;;;;;;;7.13;5.93;;;22.80;99.90;;;;;;5024385;28;20765;-69
2022/06/29 07:31:56;;;;;;;7.53;6.83;;;22.70;99.90;;;;;;5024221;28;20205;-69
2022/06/29 07:34:21;;;;;;;6.97;6.33;;;22.60;99.90;;;;;;5023669;28;20208;-71
2022/06/29 07:36:47;;;;;;;7.50;6.80;;;22.70;99.90;;;;;;5023408;28;20175;-70
2022/06/29 07:39:12;;;;;;;8.87;6.93;;;22.60;99.90;;;;;;5024234;28;20261;-68
2022/06/29 07:41:38;;;;;;;8.53;7.67;;;22.50;99.90;;;;;;5023894;28;20221;-67
2022/06/29 07:44:04;;;;;;;7.90;7.20;;;22.60;99.90;;;;;;5023972;28;20187;-68
2022/06/29 07:46:30;;;;;;;7.73;6.90;;;22.70;99.90;;;;;;5023949;28;20687;-69
2022/06/29 07:48:55;;;;;;;7.80;7.00;;;23.10;99.90;;;;;;5023263;28;20406;-69
2022/06/29 07:51:21;;;;;;;7.87;7.17;;;23.40;99.90;;;;;;5023335;28;20195;-69
2022/06/29 07:53:47;;;;;;;8.20;7.03;;;23.40;99.90;;;;;;5023558;28;20182;-69
2022/06/29 07:56:12;;;;;;;7.73;7.13;;;23.30;99.90;;;;;;5022766;28;20179;-68
2022/06/29 07:58:38;;;;;;;7.17;6.57;;;23.30;99.90;;;;;;5023593;28;20256;-70
2022/06/29 08:01:04;;;;;;;7.33;6.60;;;23.40;99.90;;;;;;5023608;28;20210;-69
2022/06/29 08:03:31;;;;;;;6.10;5.50;;;23.60;99.90;;;;;;5023387;28;20526;-70
2022/06/29 08:06:00;;;;;;;7.70;7.00;;;23.90;99.90;;;;;;5023241;28;20258;-70
2022/06/29 08:08:26;;;;;;;7.33;6.63;;;23.90;99.90;;;;;;5005127;28;20414;-68
2022/06/29 08:10:52;;;;;;;8.23;7.43;;;23.90;99.90;;;;;;5023103;28;20453;-68
2022/06/29 08:13:18;;;;;;;8.30;7.50;;;24.00;99.90;;;;;;5023305;28;20207;-70
2022/06/29 08:15:45;;;;;;;7.17;6.47;;;24.10;99.90;;;;;;5024022;28;20563;-69
2022/06/29 08:18:12;;;;;;;6.83;6.33;;;23.70;99.90;;;;;;5023098;28;20224;-69
2022/06/29 08:20:38;;;;;;;7.37;6.23;;;23.80;99.90;;;;;;5023319;28;20954;-68
2022/06/29 08:23:04;;;;;;;6.20;5.70;;;24.00;99.90;;;;;;5023359;28;20501;-69
2022/06/29 08:25:31;;;;;;;7.00;6.40;;;24.30;99.90;;;;;;5023027;28;20413;-69
2022/06/29 08:27:57;;;;;;;6.80;6.20;;;24.60;99.90;;;;;;5023591;28;20492;-69
2022/06/29 08:30:24;;;;;;;7.90;6.97;;;24.30;99.90;;;;;;5023269;28;20956;-68
2022/06/29 08:32:49;;;;;;;6.90;6.03;;;24.30;99.90;;;;;;5023148;28;20449;-68
2022/06/29 08:35:17;;;;;;;7.10;6.60;;;24.10;99.90;;;;;;5022102;28;20460;-68
2022/06/29 08:37:44;;;;;;;6.90;6.40;;;24.30;99.90;;;;;;5020464;28;20163;-70
2022/06/29 08:40:13;;;;;;;6.93;6.33;;;24.40;99.90;;;;;;5022885;28;20445;-69
2022/06/29 08:42:39;;;;;;;7.37;6.77;;;24.50;99.90;;;;;;5022889;28;20463;-70
2022/06/29 08:45:06;;;;;;;6.70;6.10;;;24.70;99.90;;;;;;5023270;28;20425;-69
2022/06/29 08:47:32;;;;;;;8.53;6.60;;;24.90;99.90;;;;;;5023148;28;20493;-69
2022/06/29 08:49:58;;;;;;;6.70;6.10;;;24.70;99.90;;;;;;5023379;28;20501;-69
2022/06/29 08:52:25;;;;;;;7.60;6.80;;;24.80;99.90;;;;;;5022230;28;20727;-67
2022/06/29 08:54:53;;;;;;;5.73;5.33;;;25.00;99.90;;;;;;5023017;28;21411;-69
2022/06/29 08:57:19;;;;;;;7.07;6.13;;;25.20;99.90;;;;;;5013318;28;20430;-69
2022/06/29 08:59:45;;;;;;;5.70;5.30;;;25.70;99.90;;;;;;5022848;28;20413;-69
2022/06/29 09:02:12;;;;;;;6.73;6.20;;;26.00;99.90;;;;;;5024816;28;20480;-69
2022/06/29 09:04:39;;;;;;;6.57;6.10;;;26.10;99.90;;;;;;5026587;28;20784;-68
2022/06/29 09:07:04;;;;;;;7.30;6.60;;;26.60;99.90;;;;;;5026045;28;20456;-69
2022/06/29 09:09:30;;;;;;;10.53;6.43;;;26.30;99.90;;;;;;5026886;28;20413;-70
2022/06/29 09:11:55;;;;;;;6.40;5.80;;;26.30;99.90;;;;;;5026112;28;20223;-66
2022/06/29 09:14:27;;;;;;;6.57;5.97;;;26.30;99.90;;;;;;5026427;28;20190;-69
2022/06/29 09:17:00;;;;;;;6.70;6.20;;;26.30;99.90;;;;;;5026195;28;20182;-71
2022/06/29 09:19:34;;;;;;;6.80;6.20;;;26.30;99.90;;;;;;5026436;28;20410;-69
2022/06/29 09:22:00;;;;;;;6.50;6.00;;;26.50;99.90;;;;;;5025725;28;20883;-71
2022/06/29 09:24:35;;;;;;;6.40;5.90;;;26.40;99.90;;;;;;5025769;28;20445;-70
2022/06/29 09:27:03;;;;;;;6.50;6.00;;;26.50;99.90;;;;;;5025878;28;20258;-69
2022/06/29 09:29:31;;;;;;;7.50;6.67;;;26.00;99.90;;;;;;5026494;28;20429;-69
2022/06/29 09:32:06;;;;;;;6.93;6.23;;;26.30;99.90;;;;;;5025833;28;20537;-68
2022/06/29 09:34:33;;;;;;;8.23;6.07;;;26.40;99.90;;;;;;5025888;28;20467;-67
2022/06/29 09:37:00;;;;;;;5.33;4.93;;;26.70;99.90;;;;;;5025933;28;20410;-69
2022/06/29 09:39:53;;;;;;;6.67;6.07;;;27.00;99.90;;;;;;5025830;28;20409;-67
2022/06/29 09:42:21;;;;;;;6.37;5.83;;;27.20;99.90;;;;;;5022748;28;20978;-70
2022/06/29 09:44:48;;;;;;;6.97;6.30;;;27.10;99.90;;;;;;5025734;28;20441;-70
2022/06/29 09:47:19;;;;;;;5.60;5.10;;;27.00;99.90;;;;;;5025647;28;20884;-70
2022/06/29 09:49:59;;;;;;;6.73;6.13;;;27.50;99.90;;;;;;5025877;28;20414;-69
2022/06/29 09:52:25;;;;;;;6.73;6.13;;;27.40;99.90;;;;;;5016841;28;20414;-70
2022/06/29 09:54:56;;;;;;;5.80;5.30;;;27.30;99.90;;;;;;5025841;28;20464;-70
2022/06/29 09:57:27;;;;;;;6.03;5.53;;;26.90;99.90;;;;;;5024972;28;20421;-70
2022/06/29 10:02:49;;;;;;;7.30;6.57;;;26.50;99.90;;;;;;5025322;28;20476;-69
2022/06/29 10:05:17;;;;;;;6.97;6.27;;;26.30;99.90;;;;;;5025309;28;20418;-69
2022/06/29 10:07:54;;;;;;;7.23;6.53;;;26.50;99.90;;;;;;5024987;28;20776;-69
2022/06/29 10:10:26;;;;;;;6.93;6.37;;;26.20;99.90;;;;;;5025035;28;20950;-69
2022/06/29 10:15:57;;;;;;;6.50;6.00;;;25.90;99.90;;;;;;5025102;28;20389;-69
2022/06/29 10:18:34;;;;;;;7.20;6.50;;;26.20;99.90;;;;;;5024924;28;20418;-68
2022/06/29 10:21:00;;;;;;;5.83;5.33;;;26.50;99.90;;;;;;5007173;28;20434;-68
2022/06/29 10:23:46;;;;;;;10.87;6.07;;;26.40;99.90;;;;;;5024935;28;20523;-69
2022/06/29 10:26:39;;;;;;;6.80;5.43;;;26.50;99.90;;;;;;5025158;28;20402;-68
2022/06/29 10:29:07;;;;;;;6.47;5.87;;;26.40;99.90;;;;;;5025036;28;20406;-71
2022/06/29 10:31:51;;;;;;;5.47;5.07;;;26.10;99.90;;;;;;5025278;28;20802;-70
2022/06/29 10:34:37;;;;;;;5.70;5.20;;;26.30;99.90;;;;;;5025626;28;20410;-69
2022/06/29 10:37:11;;;;;;;6.50;5.90;;;26.40;99.90;;;;;;5025278;28;20937;-70
2022/06/29 10:39:48;;;;;;;5.73;5.10;;;26.90;99.90;;;;;;5024842;28;20492;-70
2022/06/29 10:45:21;;;;;;;5.77;5.37;;;27.50;99.90;;;;;;5024883;28;20397;-70
2022/06/29 10:48:13;;;;;;;5.77;5.20;;;27.80;99.90;;;;;;5025226;28;20409;-68
2022/06/29 10:50:40;;;;;;;5.20;4.70;;;27.20;99.90;;;;;;5023830;28;20515;-72
2022/06/29 10:53:07;;;;;;;5.70;5.13;;;27.40;99.90;;;;;;5024667;28;20421;-69
2022/06/29 10:55:35;;;;;;;5.50;5.10;;;27.80;99.90;;;;;;5024637;28;20426;-68
2022/06/29 10:58:02;;;;;;;5.73;5.23;;;27.40;99.90;;;;;;5024447;28;20418;-69
2022/06/29 11:00:30;;;;;;;5.70;5.13;;;27.60;99.90;;;;;;5024628;28;20503;-69
2022/06/29 11:02:56;;;;;;;7.07;5.33;;;27.50;99.90;;;;;;5024519;28;20495;-70
2022/06/29 11:05:23;;;;;;;5.30;4.90;;;27.30;99.90;;;;;;5023823;28;20418;-69
2022/06/29 11:13:29;;;;;;;6.00;5.50;;;27.80;99.90;;;;;;5023856;28;20532;-69
2022/06/29 11:15:57;;;;;;;5.30;4.80;;;27.30;99.90;;;;;;5023980;28;20429;-69
2022/06/29 11:18:27;;;;;;;5.30;4.80;;;27.30;99.90;;;;;;5024140;28;20480;-70
2022/06/29 11:20:55;;;;;;;4.80;4.40;;;27.20;99.90;;;;;;5023963;28;20469;-69
2022/06/29 11:23:27;;;;;;;5.07;4.57;;;27.20;99.90;;;;;;5023289;28;20489;-68
2022/06/29 11:25:56;;;;;;;5.87;5.03;;;27.60;99.90;;;;;;5023784;28;20407;-67
2022/06/29 11:28:30;;;;;;;4.80;4.30;;;28.30;99.90;;;;;;5023709;28;20410;-67
2022/06/29 11:31:03;;;;;;;6.57;5.03;;;28.30;99.90;;;;;;5023013;28;20438;-67
2022/06/29 11:33:36;;;;;;;6.10;4.73;;;28.40;99.90;;;;;;5023758;28;20521;-69
2022/06/29 11:36:07;;;;;;;4.97;4.57;;;28.30;99.90;;;;;;5024149;28;20406;-69
2022/06/29 11:38:46;;;;;;;4.70;4.20;;;28.80;99.90;;;;;;5023816;28;20410;-68
2022/06/29 11:41:14;;;;;;;7.53;5.00;;;28.00;99.90;;;;;;5023851;28;20430;-68
2022/06/29 11:43:40;;;;;;;8.43;4.50;;;27.70;99.90;;;;;;5023365;28;20485;-67
2022/06/29 11:46:21;;;;;;;4.67;4.27;;;27.90;99.90;;;;;;5024404;28;20405;-68
2022/06/29 11:52:03;;;;;;;6.33;4.70;;;28.40;99.90;;;;;;4962639;28;20440;-68
2022/06/29 11:54:46;;;;;;;6.57;4.80;;;29.00;99.90;;;;;;4963106;28;20744;-68
2022/06/29 11:57:17;;;;;;;5.50;4.67;;;29.60;99.40;;;;;;4999483;28;20417;-68
2022/06/29 11:59:44;;;;;;;6.23;4.23;;;29.50;99.00;;;;;;5023957;28;20414;-69
2022/06/29 12:02:15;;;;;;;8.03;4.50;;;30.30;98.30;;;;;;5023873;28;20997;-69
2022/06/29 12:04:42;;;;;;;5.53;4.63;;;30.70;97.90;;;;;;5024489;28;20770;-68
2022/06/29 12:07:12;;;;;;;5.33;4.60;;;31.00;97.70;;;;;;5023586;28;20950;-68
2022/06/29 12:09:40;;;;;;;6.60;4.90;;;30.90;96.80;;;;;;5024821;28;20410;-69
2022/06/29 12:12:08;;;;;;;6.67;4.67;;;31.00;96.80;;;;;;5024520;28;20438;-69
2022/06/29 12:14:35;;;;;;;6.87;4.80;;;30.70;96.80;;;;;;5036846;28;20428;-70
2022/06/29 12:17:00;;;;;;;5.97;4.17;;;30.80;96.70;;;;;;5040247;28;20402;-71
2022/06/29 12:19:26;;;;;;;4.97;4.23;;;31.80;96.10;;;;;;5040892;28;20447;-70
2022/06/29 12:21:53;;;;;;;4.17;3.87;;;33.00;93.70;;;;;;5035294;28;20234;-70
2022/06/29 12:24:20;;;;;;;4.83;4.17;;;33.10;94.50;;;;;;5037413;28;20194;-68
2022/06/29 12:26:46;;;;;;;3.90;3.60;;;33.90;92.50;;;;;;5039373;28;20448;-70
2022/06/29 12:29:13;;;;;;;9.60;3.90;;;33.20;92.10;;;;;;5036556;28;20421;-69
2022/06/29 12:31:40;;;;;;;21.90;5.90;;;34.30;90.50;;;;;;5039051;28;20437;-69
2022/06/29 12:34:07;;;;;;;25.03;5.97;;;33.90;90.50;;;;;;5036373;28;21429;-70
2022/06/29 12:36:33;;;;;;;5.20;3.90;;;34.30;89.20;;;;;;5025938;28;20449;-69
2022/06/29 12:38:58;;;;;;;5.40;3.83;;;33.60;90.10;;;;;;5027762;28;20450;-69
2022/06/29 12:41:24;;;;;;;30.13;7.67;;;32.80;90.20;;;;;;5027246;28;20245;-69
2022/06/29 12:43:50;;;;;;;3.90;3.53;;;32.00;91.20;;;;;;5027516;28;20249;-69
2022/06/29 12:46:15;;;;;;;5.00;3.60;;;31.30;92.00;;;;;;5027213;28;20246;-69
2022/06/29 12:48:41;;;;;;;4.73;3.77;;;31.20;92.70;;;;;;5027280;28;20172;-68
2022/06/29 12:51:07;;;;;;;4.00;3.60;;;31.30;92.50;;;;;;5027241;28;20195;-69
2022/06/29 12:53:32;;;;;;;4.47;3.43;;;31.80;91.90;;;;;;5027211;28;20245;-69
2022/06/29 12:55:59;;;;;;;4.27;3.60;;;32.10;91.50;;;;;;5027749;28;20187;-70
2022/06/29 12:58:25;;;;;;;4.40;4.00;;;32.50;91.20;;;;;;5026946;28;20667;-70
2022/06/29 13:00:51;;;;;;;4.20;2.90;;;32.50;90.50;;;;;;5040156;22;20544;-71
2022/06/29 13:03:17;;;;;;;4.00;3.40;;;32.40;90.90;;;;;;5034659;28;20461;-68
2022/06/29 13:05:43;;;;;;;3.93;3.63;;;33.60;90.30;;;;;;5046529;28;20435;-69
2022/06/29 13:08:10;;;;;;;4.93;3.50;;;34.80;86.10;;;;;;5033774;28;20417;-69
2022/06/29 13:10:36;;;;;;;4.60;2.90;;;34.30;84.10;;;;;;5026450;28;20172;-70